地図

経路データ

SID SEASON NUMBER BASIN SUBBASIN NAME ISO_TIME NATURE LAT LON WMO_WIND WMO_PRES WMO_AGENCY TRACK_TYPE DIST2LAND LANDFALL IFLAG USA_AGENCY USA_ATCF_ID USA_LAT USA_LON USA_RECORD USA_STATUS USA_WIND USA_PRES USA_SSHS USA_R34_NE USA_R34_SE USA_R34_SW USA_R34_NW USA_R50_NE USA_R50_SE USA_R50_SW USA_R50_NW USA_R64_NE USA_R64_SE USA_R64_SW USA_R64_NW USA_POCI USA_ROCI USA_RMW USA_EYE TOKYO_LAT TOKYO_LON TOKYO_GRADE TOKYO_WIND TOKYO_PRES TOKYO_R50_DIR TOKYO_R50_LONG TOKYO_R50_SHORT TOKYO_R30_DIR TOKYO_R30_LONG TOKYO_R30_SHORT TOKYO_LAND CMA_LAT CMA_LON CMA_CAT CMA_WIND CMA_PRES HKO_LAT HKO_LON HKO_CAT HKO_WIND HKO_PRES NEWDELHI_LAT NEWDELHI_LON NEWDELHI_GRADE NEWDELHI_WIND NEWDELHI_PRES NEWDELHI_CI NEWDELHI_DP NEWDELHI_POCI REUNION_LAT REUNION_LON REUNION_TYPE REUNION_WIND REUNION_PRES REUNION_TNUM REUNION_CI REUNION_RMW REUNION_R34_NE REUNION_R34_SE REUNION_R34_SW REUNION_R34_NW REUNION_R50_NE REUNION_R50_SE REUNION_R50_SW REUNION_R50_NW REUNION_R64_NE REUNION_R64_SE REUNION_R64_SW REUNION_R64_NW BOM_LAT BOM_LON BOM_TYPE BOM_WIND BOM_PRES BOM_TNUM BOM_CI BOM_RMW BOM_R34_NE BOM_R34_SE BOM_R34_SW BOM_R34_NW BOM_R50_NE BOM_R50_SE BOM_R50_SW BOM_R50_NW BOM_R64_NE BOM_R64_SE BOM_R64_SW BOM_R64_NW BOM_ROCI BOM_POCI BOM_EYE BOM_POS_METHOD BOM_PRES_METHOD NADI_LAT NADI_LON NADI_CAT NADI_WIND NADI_PRES WELLINGTON_LAT WELLINGTON_LON WELLINGTON_WIND WELLINGTON_PRES DS824_LAT DS824_LON DS824_STAGE DS824_WIND DS824_PRES TD9636_LAT TD9636_LON TD9636_STAGE TD9636_WIND TD9636_PRES TD9635_LAT TD9635_LON TD9635_WIND TD9635_PRES TD9635_ROCI NEUMANN_LAT NEUMANN_LON NEUMANN_CLASS NEUMANN_WIND NEUMANN_PRES MLC_LAT MLC_LON MLC_CLASS MLC_WIND MLC_PRES USA_GUST BOM_GUST BOM_GUST_PER REUNION_GUST REUNION_GUST_PER USA_SEAHGT USA_SEARAD_NE USA_SEARAD_SE USA_SEARAD_SW USA_SEARAD_NW STORM_SPEED STORM_DIR
1854287N18296 1854 14 NA CS NOT_NAMED 1854-10-13 12:00:00 TS 17.5000 -64.3000 main 158 158 _____________O -1 17.5000 -64.3000 TS 35 1 252
1854287N18296 1854 14 NA CS NOT_NAMED 1854-10-13 15:00:00 TS 17.4875 -64.3500 main 149 149 _____________P -1 17.4875 -64.3500 TS 35 1 270
1854287N18296 1854 14 NA CS NOT_NAMED 1854-10-13 18:00:00 TS 17.5000 -64.4000 main 149 149 _____________O -1 17.5000 -64.4000 TS 35 1 304
1854287N18296 1854 14 NA CS NOT_NAMED 1854-10-13 21:00:00 TS 17.5500 -64.4500 main 143 134 _____________P -1 17.5500 -64.4500 TS 35 1 317
1854287N18296 1854 14 NA CS NOT_NAMED 1854-10-14 00:00:00 TS 17.6000 -64.5000 main 134 125 _____________O -1 17.6000 -64.5000 TS 35 1 295
1854287N18296 1854 14 NA CS NOT_NAMED 1854-10-14 03:00:00 TS 17.6000 -64.5575 main 125 125 _____________P -1 17.6000 -64.5575 TS 35 1 270
1854287N18296 1854 14 NA CS NOT_NAMED 1854-10-14 06:00:00 TS 17.6000 -64.6000 main 125 125 _____________O -1 17.6000 -64.6000 TS 35 1 319
1854287N18296 1854 14 NA CS NOT_NAMED 1854-10-14 09:00:00 TS 17.6425 -64.6000 main 125 119 _____________P -1 17.6425 -64.6000 TS 35 1 0
1854287N18296 1854 14 NA CS NOT_NAMED 1854-10-14 12:00:00 TS 17.7000 -64.6000 main 119 119 _____________O -1 17.7000 -64.6000 TS 35 1 344
1854287N18296 1854 14 NA CS NOT_NAMED 1854-10-14 15:00:00 TS 17.7500 -64.6425 main 114 105 _____________P -1 17.7500 -64.6425 TS 35 1 317
1854287N18296 1854 14 NA CS NOT_NAMED 1854-10-14 18:00:00 TS 17.8000 -64.7000 main 105 100 _____________O -1 17.8000 -64.7000 TS 35 1 317
1854287N18296 1854 14 NA CS NOT_NAMED 1854-10-14 21:00:00 TS 17.8575 -64.7500 main 100 91 _____________P -1 17.8575 -64.7500 TS 35 1 317
1854287N18296 1854 14 NA CS NOT_NAMED 1854-10-15 00:00:00 TS 17.9000 -64.8000 main 91 81 _____________O -1 17.9000 -64.8000 TS 35 1 292
1854287N18296 1854 14 NA CS NOT_NAMED 1854-10-15 03:00:00 TS 17.9000 -64.8575 main 81 81 _____________P -1 17.9000 -64.8575 TS 35 1 270
1854287N18296 1854 14 NA CS NOT_NAMED 1854-10-15 06:00:00 TS 17.9000 -64.9000 main 81 81 _____________O -1 17.9000 -64.9000 TS 35 1 319
1854287N18296 1854 14 NA CS NOT_NAMED 1854-10-15 09:00:00 TS 17.9425 -64.9000 main 81 77 _____________P -1 17.9425 -64.9000 TS 37 1 0
1854287N18296 1854 14 NA CS NOT_NAMED 1854-10-15 12:00:00 TS 18.0000 -64.9000 main 77 77 _____________O -1 18.0000 -64.9000 TS 40 1 344
1854287N18296 1854 14 NA CS NOT_NAMED 1854-10-15 15:00:00 TS 18.0500 -64.9500 main 74 64 _____________P -1 18.0500 -64.9500 TS 40 1 317
1854287N18296 1854 14 NA CS NOT_NAMED 1854-10-15 18:00:00 TS 18.1000 -65.0000 main 64 64 _____________O -1 18.1000 -65.0000 TS 40 1 343
1854287N18296 1854 14 NA CS NOT_NAMED 1854-10-15 21:00:00 TS 18.1500 -65.0000 main 63 63 _____________P -1 18.1500 -65.0000 TS 40 1 0
1854287N18296 1854 14 NA CS NOT_NAMED 1854-10-16 00:00:00 TS 18.2000 -65.0000 main 63 63 _____________O -1 18.2000 -65.0000 TS 40 1 343
1854287N18296 1854 14 NA CS NOT_NAMED 1854-10-16 03:00:00 TS 18.2500 -65.0425 main 63 52 _____________P -1 18.2500 -65.0425 TS 40 1 317
1854287N18296 1854 14 NA CS NOT_NAMED 1854-10-16 06:00:00 TS 18.3000 -65.1000 main 52 52 _____________O -1 18.3000 -65.1000 TS 40 1 317
1854287N18296 1854 14 NA CS NOT_NAMED 1854-10-16 09:00:00 TS 18.3575 -65.1500 main 52 42 _____________P -1 18.3575 -65.1500 TS 40 1 317
1854287N18296 1854 14 NA CS NOT_NAMED 1854-10-16 12:00:00 TS 18.4000 -65.2000 main 42 42 _____________O -1 18.4000 -65.2000 TS 40 1 294
1854287N18296 1854 14 NA CS NOT_NAMED 1854-10-16 15:00:00 TS 18.4000 -65.2500 main 31 31 _____________P -1 18.4000 -65.2500 TS 40 1 270
1854287N18296 1854 14 NA CS NOT_NAMED 1854-10-16 18:00:00 TS 18.4000 -65.3000 main 31 31 _____________O -1 18.4000 -65.3000 TS 40 1 294
1854287N18296 1854 14 NA CS NOT_NAMED 1854-10-16 21:00:00 TS 18.4425 -65.3500 main 31 21 _____________P -1 18.4425 -65.3500 TS 40 1 317
1854287N18296 1854 14 NA CS NOT_NAMED 1854-10-17 00:00:00 TS 18.5000 -65.4000 main 23 15 _____________O -1 18.5000 -65.4000 TS 40 1 317
1854287N18296 1854 14 NA CS NOT_NAMED 1854-10-17 03:00:00 TS 18.5500 -65.4575 main 24 24 _____________P -1 18.5500 -65.4575 TS 40 1 317
1854287N18296 1854 14 NA CS NOT_NAMED 1854-10-17 06:00:00 TS 18.6000 -65.5000 main 24 24 _____________O -1 18.6000 -65.5000 TS 40 1 331
1854287N18296 1854 14 NA CS NOT_NAMED 1854-10-17 09:00:00 TS 18.6350 -65.5000 main 24 24 _____________P -1 18.6350 -65.5000 TS 42 1 0
1854287N18296 1854 14 NA CS NOT_NAMED 1854-10-17 12:00:00 TS 18.7000 -65.5000 main 35 35 _____________O -1 18.7000 -65.5000 TS 45 2 347
1854287N18296 1854 14 NA CS NOT_NAMED 1854-10-17 15:00:00 TS 18.8350 -65.5425 main 45 45 _____________P -1 18.8350 -65.5425 TS 45 3 343
1854287N18296 1854 14 NA NA NOT_NAMED 1854-10-17 18:00:00 TS 19.0000 -65.6000 main 67 67 _____________O -1 19.0000 -65.6000 TS 45 3 340
1854287N18296 1854 14 NA NA NOT_NAMED 1854-10-17 21:00:00 TS 19.1425 -65.6575 main 78 78 _____________P -1 19.1425 -65.6575 TS 45 3 343
1854287N18296 1854 14 NA NA NOT_NAMED 1854-10-18 00:00:00 TS 19.3000 -65.7000 main 100 100 _____________O -1 19.3000 -65.7000 TS 45 4 353
1854287N18296 1854 14 NA NA NOT_NAMED 1854-10-18 03:00:00 TS 19.5000 -65.7000 main 123 123 _____________P -1 19.5000 -65.7000 TS 45 4 0
1854287N18296 1854 14 NA NA NOT_NAMED 1854-10-18 06:00:00 TS 19.7000 -65.7000 main 145 145 _____________O -1 19.7000 -65.7000 TS 45 3 352
1854287N18296 1854 14 NA NA NOT_NAMED 1854-10-18 09:00:00 TS 19.8275 -65.7500 main 156 156 _____________P -1 19.8275 -65.7500 TS 47 3 343
1854287N18296 1854 14 NA NA NOT_NAMED 1854-10-18 12:00:00 TS 20.0000 -65.8000 main 178 178 _____________O -1 20.0000 -65.8000 TS 50 5 353
1854287N18296 1854 14 NA NA NOT_NAMED 1854-10-18 15:00:00 TS 20.3275 -65.8075 main 212 212 _____________P -1 20.3275 -65.8075 TS 50 7 0
1854287N18296 1854 14 NA NA NOT_NAMED 1854-10-18 18:00:00 TS 20.7000 -65.8000 main 257 257 _____________O -1 20.7000 -65.8000 TS 50 7 1
1854287N18296 1854 14 NA NA NOT_NAMED 1854-10-18 21:00:00 TS 21.0000 -65.8000 main 290 290 _____________P -1 21.0000 -65.8000 TS 50 6 1
1854287N18296 1854 14 NA NA NOT_NAMED 1854-10-19 00:00:00 TS 21.3000 -65.8000 main 324 324 _____________O -1 21.3000 -65.8000 TS 50 6 2
1854287N18296 1854 14 NA NA NOT_NAMED 1854-10-19 03:00:00 TS 21.6425 -65.8000 main 357 357 _____________P -1 21.6425 -65.8000 TS 50 7 0
1854287N18296 1854 14 NA NA NOT_NAMED 1854-10-19 06:00:00 TS 22.0000 -65.8000 main 402 402 _____________O -1 22.0000 -65.8000 TS 50 7 0
1854287N18296 1854 14 NA NA NOT_NAMED 1854-10-19 09:00:00 TS 22.3425 -65.8000 main 436 436 _____________P -1 22.3425 -65.8000 TS 55 7 0
1854287N18296 1854 14 NA NA NOT_NAMED 1854-10-19 12:00:00 TS 22.7000 -65.8000 main 480 480 _____________O -1 22.7000 -65.8000 TS 60 8 2
1854287N18296 1854 14 NA NA NOT_NAMED 1854-10-19 15:00:00 TS 23.1000 -65.8000 main 525 525 _____________P -1 23.1000 -65.8000 TS 60 8 1
1854287N18296 1854 14 NA NA NOT_NAMED 1854-10-19 18:00:00 TS 23.5000 -65.8000 main 570 570 _____________O -1 23.5000 -65.8000 TS 60 8 0
1854287N18296 1854 14 NA NA NOT_NAMED 1854-10-19 21:00:00 TS 23.8500 -65.8000 main 615 603 _____________P -1 23.8500 -65.8000 TS 60 7 0
1854287N18296 1854 14 NA NA NOT_NAMED 1854-10-20 00:00:00 TS 24.2000 -65.8000 main 648 648 _____________O -1 24.2000 -65.8000 TS 60 8 0
1854287N18296 1854 14 NA NA NOT_NAMED 1854-10-20 03:00:00 TS 24.6000 -65.8000 main 693 693 _____________P -1 24.6000 -65.8000 TS 60 8 1
1854287N18296 1854 14 NA NA NOT_NAMED 1854-10-20 06:00:00 TS 25.0000 -65.8000 main 731 731 _____________O -1 25.0000 -65.8000 TS 60 7 0
1854287N18296 1854 14 NA NA NOT_NAMED 1854-10-20 09:00:00 TS 25.3350 -65.8074 main 761 761 _____________P -1 25.3350 -65.8074 TS 60 7 0
1854287N18296 1854 14 NA NA NOT_NAMED 1854-10-20 12:00:00 TS 25.7000 -65.8000 main 800 800 _____________O -1 25.7000 -65.8000 TS 60 9 3
1854287N18296 1854 14 NA NA NOT_NAMED 1854-10-20 15:00:00 TS 26.1850 -65.7576 main 850 850 _____________P -1 26.1850 -65.7576 TS 62 10 5
1854287N18296 1854 14 NA NA NOT_NAMED 1854-10-20 18:00:00 TS 26.7000 -65.7000 main 905 905 _____________O -1 26.7000 -65.7000 HU 65 10 6
1854287N18296 1854 14 NA NA NOT_NAMED 1854-10-20 21:00:00 TS 27.1500 -65.6425 main 960 950 _____________P -1 27.1500 -65.6425 HU 67 9 5
1854287N18296 1854 14 NA NA NOT_NAMED 1854-10-21 00:00:00 TS 27.6000 -65.6000 main 999 999 _____________O -1 27.6000 -65.6000 HU 70 10 3
1854287N18296 1854 14 NA NA NOT_NAMED 1854-10-21 03:00:00 TS 28.1000 -65.5998 main 1049 1049 _____________P -1 28.1000 -65.5998 HU 72 10 1
1854287N18296 1854 14 NA NA NOT_NAMED 1854-10-21 06:00:00 TS 28.6000 -65.6000 main 1100 1100 _____________O -1 28.6000 -65.6000 HU 75 10 2
1854287N18296 1854 14 NA NA NOT_NAMED 1854-10-21 09:00:00 TS 29.0650 -65.5576 main 1150 1150 _____________P -1 29.0650 -65.5576 HU 75 9 5
1854287N18296 1854 14 NA NA NOT_NAMED 1854-10-21 12:00:00 TS 29.5000 -65.5000 main 1168 1140 _____________O -1 29.5000 -65.5000 HU 75 8 6
1854287N18296 1854 14 NA NA NOT_NAMED 1854-10-21 15:00:00 TS 29.9000 -65.4499 main 1147 1121 _____________P -1 29.9000 -65.4499 HU 77 8 6
1854287N18296 1854 14 NA NA NOT_NAMED 1854-10-21 18:00:00 TS 30.3000 -65.4000 main 1121 1095 _____________O -1 30.3000 -65.4000 HU 80 9 6
1854287N18296 1854 14 NA NA NOT_NAMED 1854-10-21 21:00:00 TS 30.7500 -65.3574 main 1095 1073 _____________P -1 30.7500 -65.3574 HU 82 9 5
1854287N18296 1854 14 NA NA NOT_NAMED 1854-10-22 00:00:00 TS 31.2000 -65.3000 main 1073 1059 _____________O -1 31.2000 -65.3000 HU 85 9 8
1854287N18296 1854 14 NA NA NOT_NAMED 1854-10-22 03:00:00 TS 31.6075 -65.2075 main 1059 1046 _____________P -1 31.6075 -65.2075 HU 87 8 12
1854287N18296 1854 14 NA NA NOT_NAMED 1854-10-22 06:00:00 TS 32.0000 -65.1000 main 1046 1035 _____________O -1 32.0000 -65.1000 HU 90 965 8 12
1854287N18296 1854 14 NA NA NOT_NAMED 1854-10-22 09:00:00 TS 32.4075 -65.0073 main 1035 1026 _____________P -1 32.4075 -65.0073 HU 90 8 12
1854287N18296 1854 14 NA NA NOT_NAMED 1854-10-22 12:00:00 TS 32.8000 -64.9000 main 1026 1022 _____________O -1 32.8000 -64.9000 HU 90 8 15
1854287N18296 1854 14 NA NA NOT_NAMED 1854-10-22 15:00:00 TS 33.1575 -64.7574 main 1019 1019 _____________P -1 33.1575 -64.7574 HU 90 7 20
1854287N18296 1854 14 NA NA NOT_NAMED 1854-10-22 18:00:00 TS 33.5000 -64.6000 main 1026 1002 _____________O -1 33.5000 -64.6000 HU 90 7 20
1854287N18296 1854 14 NA NA NOT_NAMED 1854-10-22 21:00:00 TS 33.8575 -64.4499 main 997 972 _____________P -1 33.8575 -64.4499 HU 90 7 20
1854287N18296 1854 14 NA NA NOT_NAMED 1854-10-23 00:00:00 TS 34.2000 -64.3000 main 972 947 _____________O -1 34.2000 -64.3000 HU 90 7 21
1854287N18296 1854 14 NA NA NOT_NAMED 1854-10-23 03:00:00 TS 34.5000 -64.1498 main 952 928 _____________P -1 34.5000 -64.1498 HU 90 7 22
1854287N18296 1854 14 NA NA NOT_NAMED 1854-10-23 06:00:00 TS 34.8000 -64.0000 main 928 905 _____________O -1 34.8000 -64.0000 HU 90 6 17
1854287N18296 1854 14 NA NA NOT_NAMED 1854-10-23 09:00:00 TS 35.1194 -63.9235 main 905 879 _____________P -1 35.1194 -63.9235 HU 87 7 19
1854287N18296 1854 14 NA NA NOT_NAMED 1854-10-23 12:00:00 TS 35.5000 -63.7000 main 879 853 _____________O -1 35.5000 -63.7000 HU 85 11 37
1854287N18296 1854 14 NA NA NOT_NAMED 1854-10-23 15:00:00 TS 35.9855 -63.1260 main 855 816 _____________P -1 35.9855 -63.1260 HU 82 15 46
1854287N18296 1854 14 NA NA NOT_NAMED 1854-10-23 18:00:00 TS 36.5000 -62.4000 main 816 788 _____________O -1 36.5000 -62.4000 HU 80 15 49
1854287N18296 1854 14 NA NA NOT_NAMED 1854-10-23 21:00:00 TS 36.9571 -61.7491 main 784 761 _____________P -1 36.9571 -61.7491 HU 77 14 49
1854287N18296 1854 14 NA NA NOT_NAMED 1854-10-24 00:00:00 TS 37.4000 -61.1000 main 765 747 _____________O -1 37.4000 -61.1000 HU 75 14 49
1854287N18296 1854 14 NA NA NOT_NAMED 1854-10-24 03:00:00 TS 37.8421 -60.4490 main 756 738 _____________P -1 37.8421 -60.4490 HU 72 14 49
1854287N18296 1854 14 NA NA NOT_NAMED 1854-10-24 06:00:00 TS 38.3000 -59.8000 main 739 717 _____________O -1 38.3000 -59.8000 HU 70 14 46
1854287N18296 1854 14 NA NA NOT_NAMED 1854-10-24 09:00:00 TS 38.8139 -59.1868 main 720 687 _____________P -1 38.8139 -59.1868 HU 67 14 45
1854287N18296 1854 14 NA NA NOT_NAMED 1854-10-24 12:00:00 TS 39.3000 -58.5000 main 689 671 _____________O -1 39.3000 -58.5000 HU 65 15 55
1854287N18296 1854 14 NA NA NOT_NAMED 1854-10-24 15:00:00 TS 39.6728 -57.6291 main 675 672 _____________P -1 39.6728 -57.6291 HU 62 16 63
1854287N18296 1854 14 NA NA NOT_NAMED 1854-10-24 18:00:00 TS 40.0000 -56.7000 main 680 675 _____________O -1 40.0000 -56.7000 TS 60 15 64
1854287N18296 1854 14 NA NA NOT_NAMED 1854-10-24 21:00:00 TS 40.3492 -55.8415 main 694 665 _____________P -1 40.3492 -55.8415 TS 60 15 62
1854287N18296 1854 14 NA NA NOT_NAMED 1854-10-25 00:00:00 TS 40.7000 -55.0000 main 665 624 _____________O -1 40.7000 -55.0000 TS 60 15 61
1854287N18296 1854 14 NA NA NOT_NAMED 1854-10-25 03:00:00 TS 41.0567 -54.1568 main 613 578 _____________P -1 41.0567 -54.1568 TS 55 15 61
1854287N18296 1854 14 NA NA NOT_NAMED 1854-10-25 06:00:00 TS 41.4000 -53.3000 main 578 546 _____________O -1 41.4000 -53.3000 TS 50 14 63
1854287N18296 1854 14 NA NA NOT_NAMED 1854-10-25 09:00:00 TS 41.6904 -52.4647 main 547 526 _____________P -1 41.6904 -52.4647 TS 50 15 66
1854287N18296 1854 14 NA NA NOT_NAMED 1854-10-25 12:00:00 TS 42.0000 -51.5000 main 528 517 _____________O -1 42.0000 -51.5000 TS 50 18 67
1854287N18296 1854 14 NA NA NOT_NAMED 1854-10-25 15:00:00 TS 42.3929 -50.2606 main 519 519 _____________P -1 42.3929 -50.2606 TS 50 21 67
1854287N18296 1854 14 NA NA NOT_NAMED 1854-10-25 18:00:00 TS 42.8000 -48.9000 main 541 541 _____________O -1 42.8000 -48.9000 TS 50 22 70
1854287N18296 1854 14 NA NA NOT_NAMED 1854-10-25 21:00:00 TS 43.1521 -47.4506 main 585 585 _____________P -1 43.1521 -47.4506 TS 50 20 70
1854287N18296 1854 14 NA NA NOT_NAMED 1854-10-26 00:00:00 TS 43.5000 -46.3000 main 638 638 _____________O -1 43.5000 -46.3000 TS 50 14 57
1854287N18296 1854 14 NA NA NOT_NAMED 1854-10-26 03:00:00 TS 43.8972 -45.8546 main 639 630 _____________P -1 43.8972 -45.8546 TS 47 9 28
1854287N18296 1854 14 NA NA NOT_NAMED 1854-10-26 06:00:00 TS 44.3000 -45.7000 main 630 625 _____________O -1 44.3000 -45.7000 TS 45 8 22
1854287N18296 1854 14 NA NA NOT_NAMED 1854-10-26 09:00:00 TS 44.6339 -45.4299 main 636 631 _____________P -1 44.6339 -45.4299 TS 45 9 35
1854287N18296 1854 14 NA NA NOT_NAMED 1854-10-26 12:00:00 TS 45.0000 -45.0000 main 644 644 _____________O -1 45.0000 -45.0000 TS 45 12 45
1854287N18296 1854 14 NA NA NOT_NAMED 1854-10-26 15:00:00 TS 45.4781 -44.2333 main 677 677 _____________P -1 45.4781 -44.2333 TS 45 16 50
1854287N18296 1854 14 NA NA NOT_NAMED 1854-10-26 18:00:00 ET 46.0000 -43.3000 main 724 724 _____________O -1 46.0000 -43.3000 EX 45 16 51
1854287N18296 1854 14 NA NA NOT_NAMED 1854-10-26 21:00:00 ET 46.4996 -42.3988 main 777 777 _____________P -1 46.4996 -42.3988 EX 45 16 51
1854287N18296 1854 14 NA NA NOT_NAMED 1854-10-27 00:00:00 ET 47.0000 -41.5000 main 835 835 _____________O -1 47.0000 -41.5000 EX 45 16 50
1854287N18296 1854 14 NA NA NOT_NAMED 1854-10-27 03:00:00 ET 47.4990 -40.6480 main 896 895 _____________P -1 47.4990 -40.6480 EX 45 15 49
1854287N18296 1854 14 NA NA NOT_NAMED 1854-10-27 06:00:00 ET 48.0000 -39.8000 main 953 953 _____________O -1 48.0000 -39.8000 EX 45 15 49
1854287N18296 1854 14 NA NA NOT_NAMED 1854-10-27 09:00:00 ET 48.5016 -38.9164 main 1019 1019 _____________P -1 48.5016 -38.9164 EX 45 16 50
1854287N18296 1854 14 NA NA NOT_NAMED 1854-10-27 12:00:00 ET 49.0000 -38.0000 main 1087 _____________O -1 49.0000 -38.0000 EX 45 16 50

IBTrACS Databaseについて

本データベースは、米国NOAAが公開する1842年以降の世界の熱帯低気圧のベストトラックデータアーカイブInternational Best Track Archive for Climate Stewardship (IBTrACS)を、ウェブで閲覧しやすい形式に変換したものです。

最終更新日:2021-10-21